createdAt,value
2023-05-14T00:03:22.879Z,12.49
2023-05-14T00:08:43.287Z,12.53
2023-05-14T00:14:03.627Z,12.59
2023-05-14T00:19:24.210Z,12.64
2023-05-14T00:24:44.919Z,12.69
2023-05-14T00:30:07.198Z,12.70
2023-05-14T00:35:27.950Z,12.66
2023-05-14T00:40:51.800Z,12.64
2023-05-14T00:46:12.616Z,12.64
2023-05-14T00:51:33.457Z,12.61
2023-05-14T00:56:55.022Z,12.62
2023-05-14T01:02:15.544Z,12.62
2023-05-14T01:07:59.775Z,12.63
2023-05-14T01:14:08.974Z,12.65
2023-05-14T01:19:39.349Z,12.70
2023-05-14T01:24:59.755Z,12.81
2023-05-14T01:30:32.136Z,12.89
2023-05-14T01:35:54.144Z,12.98
2023-05-14T01:41:14.933Z,13.04
2023-05-14T01:46:36.377Z,13.07
2023-05-14T01:51:57.252Z,13.08
2023-05-14T01:57:18.236Z,13.03
2023-05-14T02:02:38.734Z,12.98
2023-05-14T02:08:01.579Z,12.91
2023-05-14T02:13:23.002Z,12.95
2023-05-14T02:18:43.908Z,12.97
2023-05-14T02:24:05.086Z,13.01
2023-05-14T02:29:25.730Z,13.05
2023-05-14T02:34:46.542Z,13.05
2023-05-14T02:40:07.748Z,13.07
2023-05-14T02:45:28.619Z,13.10
2023-05-14T02:50:51.421Z,13.10
2023-05-14T02:56:11.967Z,13.01
2023-05-14T03:01:32.706Z,12.79
2023-05-14T03:06:53.727Z,12.77
2023-05-14T03:12:14.466Z,12.80
2023-05-14T03:17:34.992Z,12.76
2023-05-14T03:22:56.602Z,12.73
2023-05-14T03:28:20.387Z,12.76
2023-05-14T03:33:41.450Z,12.81
2023-05-14T03:39:02.847Z,12.83
2023-05-14T03:44:23.873Z,12.80
2023-05-14T03:49:44.566Z,12.86
2023-05-14T03:55:07.493Z,12.92
2023-05-14T04:00:28.585Z,12.98
2023-05-14T04:05:49.076Z,13.06
2023-05-14T04:11:09.748Z,13.18
2023-05-14T04:16:30.631Z,13.31
2023-05-14T04:21:51.179Z,13.46
2023-05-14T04:27:11.937Z,13.61
2023-05-14T04:32:32.370Z,13.76
2023-05-14T04:37:53.174Z,13.89
2023-05-14T04:43:13.525Z,13.99
2023-05-14T04:48:34.281Z,14.08
2023-05-14T04:53:55.127Z,14.15
2023-05-14T04:59:16.396Z,14.22
2023-05-14T05:04:36.759Z,14.27
2023-05-14T05:09:57.618Z,14.32
2023-05-14T05:15:18.144Z,14.39
2023-05-14T05:20:38.989Z,14.43
2023-05-14T05:25:59.900Z,14.50
2023-05-14T05:31:20.720Z,14.53
2023-05-14T05:36:41.474Z,14.52
2023-05-14T05:42:02.630Z,14.58
2023-05-14T05:47:23.170Z,14.62
2023-05-14T05:52:44.152Z,14.60
2023-05-14T05:58:04.954Z,14.68
2023-05-14T06:03:26.048Z,14.76
2023-05-14T06:08:47.011Z,14.81
2023-05-14T06:14:07.506Z,14.86
2023-05-14T06:19:28.524Z,14.91
2023-05-14T06:24:49.045Z,14.97
2023-05-14T06:30:11.316Z,15.07
2023-05-14T06:35:32.536Z,15.21
2023-05-14T06:40:53.203Z,15.27
2023-05-14T06:46:13.797Z,15.30
2023-05-14T06:51:34.589Z,15.43
2023-05-14T06:56:55.150Z,15.51
2023-05-14T07:02:15.609Z,15.51
2023-05-14T07:07:35.946Z,15.65
2023-05-14T07:12:56.656Z,15.74
2023-05-14T07:18:17.401Z,15.73
2023-05-14T07:23:40.778Z,15.68
2023-05-14T07:29:01.080Z,15.66
2023-05-14T07:34:21.440Z,15.63
2023-05-14T07:39:42.197Z,15.89
2023-05-14T07:45:02.620Z,16.06
2023-05-14T07:50:23.643Z,16.12
2023-05-14T07:55:45.648Z,16.31
2023-05-14T08:01:09.139Z,16.64
2023-05-14T08:06:31.576Z,16.63
2023-05-14T08:11:52.149Z,16.91
2023-05-14T08:17:13.097Z,17.04
2023-05-14T08:22:33.896Z,17.12
2023-05-14T08:27:54.735Z,17.17
2023-05-14T08:33:15.069Z,17.08
2023-05-14T08:38:35.743Z,17.05
2023-05-14T08:44:11.552Z,17.06
2023-05-14T08:49:40.926Z,17.20
2023-05-14T08:55:05.203Z,17.43
2023-05-14T09:00:26.578Z,17.57
2023-05-14T09:05:49.219Z,18.11
2023-05-14T09:11:10.027Z,18.40
2023-05-14T09:16:30.882Z,18.91
2023-05-14T09:21:51.660Z,19.11
2023-05-14T09:27:20.149Z,19.13
2023-05-14T09:32:44.181Z,19.36
2023-05-14T09:38:05.029Z,19.39
2023-05-14T09:43:26.100Z,19.39
2023-05-14T09:48:46.674Z,19.60
2023-05-14T09:54:08.259Z,19.68
2023-05-14T09:59:28.870Z,19.89
2023-05-14T10:05:00.258Z,19.95
2023-05-14T10:10:23.777Z,20.12
2023-05-14T10:15:52.012Z,19.89
2023-05-14T10:21:15.204Z,20.66
2023-05-14T10:26:39.331Z,20.84
2023-05-14T10:32:06.290Z,20.42
2023-05-14T10:37:27.000Z,20.29
2023-05-14T10:42:48.475Z,20.91
2023-05-14T10:48:09.424Z,21.74
2023-05-14T10:53:34.868Z,21.92
2023-05-14T10:58:58.377Z,22.10
2023-05-14T11:04:19.553Z,22.14
2023-05-14T11:09:40.626Z,22.06
2023-05-14T11:15:05.738Z,22.02
2023-05-14T11:20:26.396Z,22.85
2023-05-14T11:25:47.165Z,23.38
2023-05-14T11:31:07.694Z,23.36
2023-05-14T11:36:28.224Z,23.22
2023-05-14T11:41:48.846Z,22.74
2023-05-14T11:47:09.967Z,23.37
2023-05-14T11:52:30.315Z,23.23
2023-05-14T11:57:51.306Z,23.51
2023-05-14T12:03:12.348Z,23.26
2023-05-14T12:08:32.951Z,23.23
2023-05-14T12:13:53.343Z,23.51
2023-05-14T12:19:19.160Z,23.78
2023-05-14T12:24:40.247Z,24.41
2023-05-14T12:30:20.780Z,24.82
2023-05-14T12:35:46.923Z,24.87
2023-05-14T12:47:06.690Z,25.16
2023-05-14T12:52:37.731Z,25.03
2023-05-14T12:57:59.018Z,24.90
2023-05-14T13:03:19.556Z,24.95
2023-05-14T13:08:42.111Z,24.88
2023-05-14T13:14:03.865Z,25.14
2023-05-14T13:19:24.338Z,25.05
2023-05-14T13:24:44.758Z,24.92
2023-05-14T13:30:05.749Z,25.32
2023-05-14T13:35:26.418Z,25.72
2023-05-14T13:40:47.218Z,25.45
2023-05-14T13:46:07.993Z,25.02
2023-05-14T13:51:28.344Z,24.44
2023-05-14T13:56:48.956Z,24.26
2023-05-14T14:02:09.645Z,24.21
2023-05-14T14:07:29.959Z,23.79
2023-05-14T14:12:50.922Z,23.22
2023-05-14T14:18:11.482Z,23.64
2023-05-14T14:23:32.339Z,24.30
2023-05-14T14:28:52.685Z,24.40
2023-05-14T14:34:13.369Z,24.54
2023-05-14T14:39:34.293Z,24.20
2023-05-14T14:44:55.029Z,23.60
2023-05-14T14:50:15.675Z,23.46
2023-05-14T14:55:36.171Z,23.38
2023-05-14T15:00:57.601Z,23.52
2023-05-14T15:06:18.077Z,24.09
2023-05-14T15:11:38.635Z,24.24
2023-05-14T15:16:58.962Z,23.81
2023-05-14T15:22:19.556Z,23.76
2023-05-14T15:27:40.628Z,23.80
2023-05-14T15:33:01.383Z,24.11
2023-05-14T15:38:21.932Z,24.20
2023-05-14T15:43:42.600Z,23.90
2023-05-14T15:49:03.039Z,23.67
2023-05-14T15:54:23.608Z,23.49
2023-05-14T15:59:47.038Z,23.77
2023-05-14T16:05:08.509Z,24.18
2023-05-14T16:10:29.030Z,24.11
2023-05-14T16:15:49.992Z,24.39
2023-05-14T16:21:10.331Z,25.38
2023-05-14T16:26:31.293Z,25.69
2023-05-14T16:31:52.602Z,25.43
2023-05-14T16:37:14.988Z,25.19
2023-05-14T16:42:35.871Z,24.98
2023-05-14T16:47:56.758Z,24.76
2023-05-14T16:53:17.411Z,24.06
2023-05-14T16:58:38.063Z,23.45
2023-05-14T17:03:58.464Z,23.21
2023-05-14T17:09:19.145Z,22.84
2023-05-14T17:14:39.826Z,22.50
2023-05-14T17:20:00.929Z,22.18
2023-05-14T17:25:23.769Z,22.09
2023-05-14T17:30:44.541Z,21.86
2023-05-14T17:36:08.343Z,21.69
2023-05-14T17:41:28.880Z,21.60
2023-05-14T17:46:49.921Z,21.59
2023-05-14T17:52:10.184Z,21.43
2023-05-14T17:57:30.764Z,21.21
2023-05-14T18:02:51.519Z,20.95
2023-05-14T18:08:12.075Z,20.85
2023-05-14T18:13:32.808Z,20.68
2023-05-14T18:18:53.503Z,20.56
2023-05-14T18:24:14.254Z,20.52
2023-05-14T18:29:34.647Z,20.25
2023-05-14T18:34:54.869Z,20.19
2023-05-14T18:40:17.060Z,20.14
2023-05-14T18:45:40.044Z,20.00
2023-05-14T18:51:01.049Z,19.84
2023-05-14T18:56:21.534Z,19.75
2023-05-14T19:01:42.336Z,19.55
2023-05-14T19:07:02.964Z,19.35
2023-05-14T19:12:23.458Z,19.29
2023-05-14T19:17:44.836Z,19.14
2023-05-14T19:23:05.634Z,18.72
2023-05-14T19:28:25.985Z,18.39
2023-05-14T19:33:46.822Z,18.16
2023-05-14T19:39:07.479Z,17.97
2023-05-14T19:44:28.111Z,17.84
2023-05-14T19:49:48.485Z,17.66
2023-05-14T19:55:09.262Z,17.43
2023-05-14T20:00:29.700Z,17.26
2023-05-14T20:05:50.414Z,16.92
2023-05-14T20:11:11.366Z,16.61
2023-05-14T20:16:32.155Z,16.42
2023-05-14T20:21:52.716Z,16.30
2023-05-14T20:27:13.317Z,16.18
2023-05-14T20:32:34.146Z,16.06
2023-05-14T20:37:54.815Z,16.02
2023-05-14T20:43:16.425Z,15.93
2023-05-14T20:48:36.793Z,15.78
2023-05-14T20:53:57.513Z,15.67
2023-05-14T20:59:17.925Z,15.58
2023-05-14T21:04:38.863Z,15.51
2023-05-14T21:09:59.471Z,15.43
2023-05-14T21:15:20.116Z,15.35
2023-05-14T21:20:40.914Z,15.29
2023-05-14T21:26:01.392Z,15.20
2023-05-14T21:31:11.894Z,15.21
2023-05-14T21:36:32.731Z,15.17
2023-05-14T21:41:53.025Z,15.14
2023-05-14T21:47:13.660Z,15.09
2023-05-14T21:52:34.033Z,15.01
2023-05-14T21:57:54.927Z,14.94
2023-05-14T22:03:16.000Z,14.89
2023-05-14T22:08:36.938Z,14.87
2023-05-14T22:13:57.484Z,14.85
2023-05-14T22:19:18.300Z,14.84
2023-05-14T22:24:38.511Z,14.81
2023-05-14T22:29:59.454Z,14.81
2023-05-14T22:35:20.241Z,14.76
2023-05-14T22:40:40.861Z,14.74
2023-05-14T22:46:01.446Z,14.72
2023-05-14T22:51:21.978Z,14.67
2023-05-14T22:56:42.731Z,14.65
2023-05-14T23:02:03.104Z,14.62
2023-05-14T23:07:23.888Z,14.61
2023-05-14T23:12:44.665Z,14.57
2023-05-14T23:18:05.752Z,14.52
2023-05-14T23:23:26.660Z,14.47
2023-05-14T23:28:47.460Z,14.43
2023-05-14T23:34:07.689Z,14.39
2023-05-14T23:39:28.221Z,14.30
2023-05-14T23:44:49.079Z,14.27
2023-05-14T23:50:09.818Z,14.22
2023-05-14T23:55:30.221Z,14.16
